To NAV CANADA Home Page Login to a new session Search on AWWS site Feedback and Comments Disclaimer Vers la page française équivalente Tips FAQ What's new on the site To the Forecasts and Observations / NOTAM section To "File a Flight Plan" website Publications and other links Update of the User's profile FIC Telephone Numbers My Weather Data Folder Route Weather Data Regional Weather Data Local Weather Data To the Forecasts and Observations / NOTAM section
Request Generated 03/31/2015 at 21:57:31 UTC . Weather information available at that time is displayed.

METAR/TAF

HALIFAX/SHEARWATER/NS    

SPECI CYAW 312022Z 29015G22KT 15SM SCT030 OVC050 05/M02 A2952 RMK SC3SC4 DA-524FT LAST OBS/NEXT 010900 UTC SLP000=
METAR CYAW 312000Z 29016G21KT 15SM BKN030 OVC060 05/M02 A2952 RMK SC7SC1 DA-462FT CU ASOCTD SLP997=
METAR CYAW 311900Z 27016G21KT 15SM SCT020 OVC050 05/M00 A2949 RMK SC3SC4 DA-516FT SLP990=
METAR CYAW 311800Z 26014KT 15SM FEW018 04/01 A2948 RMK SC2 DA-573FT SHWRS NW QUAD SLP986=

TAF AMD CYAW 312024Z 3120/0108 FCST CNCLD DUE END OF FLYING PROGRAM
RMK NXT FCST BY 011015Z=
Your time UTC time
Weather data provided by Environment Canada and NAV CANADA